sensor_id;sensor_type;location;lat;lon;timestamp;pressure;altitude;pressure_sealevel;temperature;humidity
22647;BME280;11490;42.726;23.268;2023-02-19T00:02:11;95500.88;;;7.32;70.38
22647;BME280;11490;42.726;23.268;2023-02-19T00:04:36;95513.13;;;7.33;69.78
22647;BME280;11490;42.726;23.268;2023-02-19T00:07:02;95506.78;;;7.34;70.22
22647;BME280;11490;42.726;23.268;2023-02-19T00:09:27;95497.78;;;7.42;70.26
22647;BME280;11490;42.726;23.268;2023-02-19T00:11:52;95497.53;;;7.44;70.19
22647;BME280;11490;42.726;23.268;2023-02-19T00:14:19;95485.03;;;7.57;69.43
22647;BME280;11490;42.726;23.268;2023-02-19T00:16:46;95502.19;;;7.55;70.19
22647;BME280;11490;42.726;23.268;2023-02-19T00:19:14;95502.97;;;7.62;69.81
22647;BME280;11490;42.726;23.268;2023-02-19T00:21:40;95489.56;;;7.44;70.75
22647;BME280;11490;42.726;23.268;2023-02-19T00:24:06;95482.59;;;7.56;70.02
22647;BME280;11490;42.726;23.268;2023-02-19T00:26:33;95479.78;;;7.44;70.43
22647;BME280;11490;42.726;23.268;2023-02-19T00:28:59;95478.56;;;7.47;69.90
22647;BME280;11490;42.726;23.268;2023-02-19T00:31:35;95486.00;;;7.69;69.54
22647;BME280;11490;42.726;23.268;2023-02-19T00:34:04;95493.56;;;7.66;69.80
22647;BME280;11490;42.726;23.268;2023-02-19T00:36:31;95489.00;;;7.42;69.80
22647;BME280;11490;42.726;23.268;2023-02-19T00:38:57;95481.06;;;7.28;70.09
22647;BME280;11490;42.726;23.268;2023-02-19T00:41:25;95465.59;;;7.25;70.93
22647;BME280;11490;42.726;23.268;2023-02-19T00:43:52;95486.72;;;7.45;70.28
22647;BME280;11490;42.726;23.268;2023-02-19T00:46:21;95466.91;;;7.48;69.81
22647;BME280;11490;42.726;23.268;2023-02-19T00:48:47;95453.44;;;6.98;71.57
22647;BME280;11490;42.726;23.268;2023-02-19T00:51:13;95448.91;;;7.05;70.98
22647;BME280;11490;42.726;23.268;2023-02-19T00:53:39;95439.41;;;6.84;71.77
22647;BME280;11490;42.726;23.268;2023-02-19T00:56:06;95442.84;;;6.91;71.83
22647;BME280;11490;42.726;23.268;2023-02-19T00:58:32;95408.66;;;6.77;70.81
22647;BME280;11490;42.726;23.268;2023-02-19T01:00:57;95453.59;;;7.16;71.23
22647;BME280;11490;42.726;23.268;2023-02-19T01:03:23;95442.25;;;6.96;70.76
22647;BME280;11490;42.726;23.268;2023-02-19T01:05:50;95441.81;;;6.99;71.57
22647;BME280;11490;42.726;23.268;2023-02-19T01:08:16;95452.59;;;7.11;70.99
22647;BME280;11490;42.726;23.268;2023-02-19T01:10:41;95464.69;;;6.93;71.67
22647;BME280;11490;42.726;23.268;2023-02-19T01:13:06;95452.13;;;6.63;72.89
22647;BME280;11490;42.726;23.268;2023-02-19T01:15:33;95457.59;;;6.81;72.33
22647;BME280;11490;42.726;23.268;2023-02-19T01:17:58;95457.66;;;6.41;73.45
22647;BME280;11490;42.726;23.268;2023-02-19T01:20:24;95432.59;;;6.24;74.32
22647;BME280;11490;42.726;23.268;2023-02-19T01:22:50;95454.19;;;6.14;75.25
22647;BME280;11490;42.726;23.268;2023-02-19T01:25:16;95443.78;;;6.39;74.36
22647;BME280;11490;42.726;23.268;2023-02-19T01:27:41;95454.38;;;6.39;74.42
22647;BME280;11490;42.726;23.268;2023-02-19T01:30:07;95450.28;;;6.56;73.96
22647;BME280;11490;42.726;23.268;2023-02-19T01:32:33;95468.19;;;6.68;74.17
22647;BME280;11490;42.726;23.268;2023-02-19T01:34:58;95457.81;;;6.60;74.55
22647;BME280;11490;42.726;23.268;2023-02-19T01:37:24;95453.94;;;6.62;74.65
22647;BME280;11490;42.726;23.268;2023-02-19T01:39:49;95445.00;;;6.50;74.76
22647;BME280;11490;42.726;23.268;2023-02-19T01:42:15;95483.88;;;6.76;74.53
22647;BME280;11490;42.726;23.268;2023-02-19T01:47:10;95481.88;;;6.65;75.06
22647;BME280;11490;42.726;23.268;2023-02-19T01:49:41;95475.19;;;6.42;75.01
22647;BME280;11490;42.726;23.268;2023-02-19T01:52:45;95477.63;;;6.24;76.60
22647;BME280;11490;42.726;23.268;2023-02-19T01:55:11;95478.66;;;6.10;76.53
22647;BME280;11490;42.726;23.268;2023-02-19T01:57:41;95474.75;;;6.06;76.47
22647;BME280;11490;42.726;23.268;2023-02-19T02:00:10;95481.69;;;6.13;76.55
22647;BME280;11490;42.726;23.268;2023-02-19T02:02:37;95486.16;;;6.13;76.46
22647;BME280;11490;42.726;23.268;2023-02-19T02:05:05;95464.56;;;5.90;77.02
22647;BME280;11490;42.726;23.268;2023-02-19T02:07:33;95507.72;;;5.90;77.46
22647;BME280;11490;42.726;23.268;2023-02-19T02:10:17;95499.97;;;5.89;77.50
22647;BME280;11490;42.726;23.268;2023-02-19T02:12:50;95468.81;;;5.77;77.72
22647;BME280;11490;42.726;23.268;2023-02-19T02:15:16;95476.34;;;5.80;77.90
22647;BME280;11490;42.726;23.268;2023-02-19T02:18:03;95491.81;;;5.84;78.08
22647;BME280;11490;42.726;23.268;2023-02-19T02:20:33;95490.97;;;5.57;79.26
22647;BME280;11490;42.726;23.268;2023-02-19T02:23:24;95496.66;;;5.73;79.17
22647;BME280;11490;42.726;23.268;2023-02-19T02:26:08;95495.47;;;5.76;78.63
22647;BME280;11490;42.726;23.268;2023-02-19T02:31:18;95499.09;;;5.55;80.35
22647;BME280;11490;42.726;23.268;2023-02-19T02:33:58;95497.47;;;5.67;79.53
22647;BME280;11490;42.726;23.268;2023-02-19T02:36:46;95490.81;;;5.85;79.26
22647;BME280;11490;42.726;23.268;2023-02-19T02:39:18;95476.75;;;5.71;78.54
22647;BME280;11490;42.726;23.268;2023-02-19T02:41:48;95472.84;;;5.73;78.64
22647;BME280;11490;42.726;23.268;2023-02-19T02:44:38;95484.41;;;5.46;78.90
22647;BME280;11490;42.726;23.268;2023-02-19T02:47:05;95510.81;;;5.33;80.29
22647;BME280;11490;42.726;23.268;2023-02-19T02:49:32;95502.38;;;5.10;81.14
22647;BME280;11490;42.726;23.268;2023-02-19T02:52:18;95490.00;;;5.17;80.99
22647;BME280;11490;42.726;23.268;2023-02-19T02:55:07;95496.63;;;4.99;81.62
22647;BME280;11490;42.726;23.268;2023-02-19T02:57:33;95498.56;;;5.19;81.66
22647;BME280;11490;42.726;23.268;2023-02-19T02:59:59;95502.06;;;5.32;80.68
22647;BME280;11490;42.726;23.268;2023-02-19T03:02:27;95510.53;;;5.15;82.12
22647;BME280;11490;42.726;23.268;2023-02-19T03:05:01;95484.63;;;5.03;80.63
22647;BME280;11490;42.726;23.268;2023-02-19T03:07:57;95508.66;;;5.09;81.62
22647;BME280;11490;42.726;23.268;2023-02-19T03:10:38;95510.78;;;5.26;81.31
22647;BME280;11490;42.726;23.268;2023-02-19T03:13:09;95514.13;;;5.48;80.51
22647;BME280;11490;42.726;23.268;2023-02-19T03:15:59;95510.88;;;5.59;79.05
22647;BME280;11490;42.726;23.268;2023-02-19T03:18:28;95508.38;;;5.31;80.20
22647;BME280;11490;42.726;23.268;2023-02-19T03:21:14;95505.94;;;5.36;80.15
22647;BME280;11490;42.726;23.268;2023-02-19T03:23:41;95509.44;;;5.50;79.18
22647;BME280;11490;42.726;23.268;2023-02-19T03:26:27;95525.94;;;5.52;79.15
22647;BME280;11490;42.726;23.268;2023-02-19T03:28:55;95529.66;;;5.64;79.19
22647;BME280;11490;42.726;23.268;2023-02-19T03:31:42;95536.97;;;5.62;80.06
22647;BME280;11490;42.726;23.268;2023-02-19T03:34:13;95528.03;;;5.76;79.29
22647;BME280;11490;42.726;23.268;2023-02-19T03:36:45;95544.72;;;5.70;79.01
22647;BME280;11490;42.726;23.268;2023-02-19T03:39:14;95520.91;;;5.77;78.58
22647;BME280;11490;42.726;23.268;2023-02-19T03:41:43;95546.63;;;5.90;79.16
22647;BME280;11490;42.726;23.268;2023-02-19T03:47:02;95543.19;;;5.96;77.93
22647;BME280;11490;42.726;23.268;2023-02-19T03:55:05;95559.53;;;6.19;76.63
22647;BME280;11490;42.726;23.268;2023-02-19T04:03:11;95552.53;;;5.92;76.42
22647;BME280;11490;42.726;23.268;2023-02-19T04:05:43;95563.94;;;5.92;77.60
22647;BME280;11490;42.726;23.268;2023-02-19T04:08:22;95552.97;;;6.02;77.40
22647;BME280;11490;42.726;23.268;2023-02-19T04:10:48;95514.19;;;5.74;77.39
22647;BME280;11490;42.726;23.268;2023-02-19T04:13:19;95557.06;;;6.11;77.32
22647;BME280;11490;42.726;23.268;2023-02-19T04:15:48;95555.44;;;6.10;77.32
22647;BME280;11490;42.726;23.268;2023-02-19T04:18:17;95566.22;;;6.15;76.93
22647;BME280;11490;42.726;23.268;2023-02-19T04:20:45;95548.09;;;6.12;76.83
22647;BME280;11490;42.726;23.268;2023-02-19T04:23:13;95540.75;;;6.14;76.40
22647;BME280;11490;42.726;23.268;2023-02-19T04:25:43;95575.84;;;6.42;76.80
22647;BME280;11490;42.726;23.268;2023-02-19T04:28:12;95560.34;;;6.46;76.35
22647;BME280;11490;42.726;23.268;2023-02-19T04:30:38;95561.59;;;6.56;76.05
22647;BME280;11490;42.726;23.268;2023-02-19T04:33:03;95567.69;;;6.64;76.39
22647;BME280;11490;42.726;23.268;2023-02-19T04:35:29;95564.03;;;6.71;75.68
22647;BME280;11490;42.726;23.268;2023-02-19T04:37:54;95580.31;;;6.75;75.73
22647;BME280;11490;42.726;23.268;2023-02-19T04:40:19;95563.59;;;6.74;75.49
22647;BME280;11490;42.726;23.268;2023-02-19T04:42:45;95579.50;;;6.94;75.02
22647;BME280;11490;42.726;23.268;2023-02-19T04:45:10;95578.50;;;6.95;74.54
22647;BME280;11490;42.726;23.268;2023-02-19T04:47:36;95592.56;;;6.95;75.03
22647;BME280;11490;42.726;23.268;2023-02-19T04:50:01;95558.72;;;6.78;75.16
22647;BME280;11490;42.726;23.268;2023-02-19T04:52:27;95589.69;;;6.97;75.57
22647;BME280;11490;42.726;23.268;2023-02-19T04:54:52;95587.66;;;6.99;75.21
22647;BME280;11490;42.726;23.268;2023-02-19T04:57:17;95573.38;;;7.00;74.92
22647;BME280;11490;42.726;23.268;2023-02-19T04:59:43;95568.88;;;7.01;74.50
22647;BME280;11490;42.726;23.268;2023-02-19T05:02:08;95554.63;;;6.82;74.90
22647;BME280;11490;42.726;23.268;2023-02-19T05:04:33;95584.78;;;7.07;74.54
22647;BME280;11490;42.726;23.268;2023-02-19T05:06:59;95583.97;;;7.13;74.03
22647;BME280;11490;42.726;23.268;2023-02-19T05:09:24;95586.81;;;7.18;73.38
22647;BME280;11490;42.726;23.268;2023-02-19T05:11:49;95584.56;;;7.15;73.88
22647;BME280;11490;42.726;23.268;2023-02-19T05:14:15;95590.91;;;7.14;73.34
22647;BME280;11490;42.726;23.268;2023-02-19T05:16:41;95589.25;;;7.26;73.08
22647;BME280;11490;42.726;23.268;2023-02-19T05:19:10;95583.16;;;7.19;73.07
22647;BME280;11490;42.726;23.268;2023-02-19T05:21:35;95587.63;;;7.25;72.77
22647;BME280;11490;42.726;23.268;2023-02-19T05:24:00;95585.59;;;7.27;72.60
22647;BME280;11490;42.726;23.268;2023-02-19T05:26:26;95575.34;;;7.31;72.07
22647;BME280;11490;42.726;23.268;2023-02-19T05:28:52;95587.41;;;7.33;71.98
22647;BME280;11490;42.726;23.268;2023-02-19T05:31:18;95581.88;;;7.35;71.33
22647;BME280;11490;42.726;23.268;2023-02-19T05:33:43;95575.75;;;7.41;70.99
22647;BME280;11490;42.726;23.268;2023-02-19T05:36:13;95598.59;;;7.49;71.46
22647;BME280;11490;42.726;23.268;2023-02-19T05:38:39;95595.28;;;7.53;70.70
22647;BME280;11490;42.726;23.268;2023-02-19T05:41:16;95590.56;;;7.62;70.44
22647;BME280;11490;42.726;23.268;2023-02-19T05:43:43;95606.88;;;7.72;70.67
22647;BME280;11490;42.726;23.268;2023-02-19T05:46:10;95604.63;;;7.69;70.40
22647;BME280;11490;42.726;23.268;2023-02-19T05:48:36;95609.88;;;7.82;69.76
22647;BME280;11490;42.726;23.268;2023-02-19T05:51:07;95600.09;;;7.76;70.25
22647;BME280;11490;42.726;23.268;2023-02-19T05:53:32;95620.47;;;7.95;69.37
22647;BME280;11490;42.726;23.268;2023-02-19T05:55:58;95619.69;;;7.88;68.88
22647;BME280;11490;42.726;23.268;2023-02-19T05:58:24;95600.91;;;7.83;68.36
22647;BME280;11490;42.726;23.268;2023-02-19T06:00:49;95627.97;;;8.11;68.87
22647;BME280;11490;42.726;23.268;2023-02-19T06:03:15;95629.84;;;8.04;68.72
22647;BME280;11490;42.726;23.268;2023-02-19T06:05:40;95628.13;;;8.17;68.06
22647;BME280;11490;42.726;23.268;2023-02-19T06:08:05;95643.63;;;8.26;68.61
22647;BME280;11490;42.726;23.268;2023-02-19T06:10:31;95651.81;;;8.25;67.80
22647;BME280;11490;42.726;23.268;2023-02-19T06:12:56;95651.41;;;8.21;67.73
22647;BME280;11490;42.726;23.268;2023-02-19T06:15:22;95654.59;;;8.43;67.12
22647;BME280;11490;42.726;23.268;2023-02-19T06:18:08;95646.88;;;8.35;67.58
22647;BME280;11490;42.726;23.268;2023-02-19T06:20:34;95638.50;;;8.25;67.38
22647;BME280;11490;42.726;23.268;2023-02-19T06:22:59;95633.41;;;8.23;67.62
22647;BME280;11490;42.726;23.268;2023-02-19T06:25:24;95666.34;;;8.60;67.16
22647;BME280;11490;42.726;23.268;2023-02-19T06:27:50;95672.47;;;8.61;67.07
22647;BME280;11490;42.726;23.268;2023-02-19T06:30:15;95655.19;;;8.76;67.29
22647;BME280;11490;42.726;23.268;2023-02-19T06:32:40;95660.34;;;9.03;66.86
22647;BME280;11490;42.726;23.268;2023-02-19T06:35:06;95682.47;;;9.46;65.60
22647;BME280;11490;42.726;23.268;2023-02-19T06:37:31;95672.69;;;9.65;64.74
22647;BME280;11490;42.726;23.268;2023-02-19T06:39:57;95658.91;;;9.68;64.37
22647;BME280;11490;42.726;23.268;2023-02-19T06:42:22;95670.53;;;9.92;64.72
22647;BME280;11490;42.726;23.268;2023-02-19T06:44:47;95679.91;;;10.37;63.89
22647;BME280;11490;42.726;23.268;2023-02-19T06:47:22;95654.16;;;10.73;61.38
22647;BME280;11490;42.726;23.268;2023-02-19T06:49:47;95682.72;;;11.26;60.62
22647;BME280;11490;42.726;23.268;2023-02-19T06:52:13;95686.09;;;11.56;59.62
22647;BME280;11490;42.726;23.268;2023-02-19T06:54:39;95658.72;;;11.84;58.08
22647;BME280;11490;42.726;23.268;2023-02-19T06:57:05;95685.31;;;12.14;57.67
22647;BME280;11490;42.726;23.268;2023-02-19T06:59:30;95677.59;;;12.17;57.01
22647;BME280;11490;42.726;23.268;2023-02-19T07:01:56;95694.38;;;12.01;57.26
22647;BME280;11490;42.726;23.268;2023-02-19T07:04:21;95686.19;;;12.31;56.54
22647;BME280;11490;42.726;23.268;2023-02-19T07:09:54;95689.72;;;11.85;57.64
22647;BME280;11490;42.726;23.268;2023-02-19T07:12:19;95669.97;;;11.98;58.42
22647;BME280;11490;42.726;23.268;2023-02-19T07:14:45;95686.59;;;12.51;57.16
22647;BME280;11490;42.726;23.268;2023-02-19T07:17:10;95682.03;;;12.92;55.68
22647;BME280;11490;42.726;23.268;2023-02-19T07:19:35;95683.22;;;13.63;53.71
22647;BME280;11490;42.726;23.268;2023-02-19T07:22:01;95641.13;;;13.63;53.59
22647;BME280;11490;42.726;23.268;2023-02-19T07:24:28;95662.22;;;13.09;54.46
22647;BME280;11490;42.726;23.268;2023-02-19T07:26:54;95663.97;;;12.87;55.91
22647;BME280;11490;42.726;23.268;2023-02-19T07:29:25;95649.66;;;12.65;57.82
22647;BME280;11490;42.726;23.268;2023-02-19T07:31:51;95623.72;;;12.37;57.65
22647;BME280;11490;42.726;23.268;2023-02-19T07:34:16;95652.66;;;12.40;58.55
22647;BME280;11490;42.726;23.268;2023-02-19T07:36:41;95636.50;;;12.07;60.02
22647;BME280;11490;42.726;23.268;2023-02-19T07:39:11;95636.13;;;12.15;60.32
22647;BME280;11490;42.726;23.268;2023-02-19T07:41:37;95647.19;;;12.07;61.16
22647;BME280;11490;42.726;23.268;2023-02-19T07:44:03;95633.28;;;11.81;61.07
22647;BME280;11490;42.726;23.268;2023-02-19T07:46:29;95644.88;;;11.87;60.50
22647;BME280;11490;42.726;23.268;2023-02-19T07:48:54;95644.47;;;12.18;60.58
22647;BME280;11490;42.726;23.268;2023-02-19T07:51:20;95639.66;;;12.32;60.27
22647;BME280;11490;42.726;23.268;2023-02-19T07:53:46;95654.19;;;12.36;59.88
22647;BME280;11490;42.726;23.268;2023-02-19T07:56:12;95641.56;;;12.20;59.75
22647;BME280;11490;42.726;23.268;2023-02-19T07:58:38;95613.66;;;12.16;59.87
22647;BME280;11490;42.726;23.268;2023-02-19T08:03:40;95639.53;;;12.39;59.45
22647;BME280;11490;42.726;23.268;2023-02-19T08:06:06;95628.03;;;12.38;58.69
22647;BME280;11490;42.726;23.268;2023-02-19T08:08:31;95635.84;;;12.56;58.93
22647;BME280;11490;42.726;23.268;2023-02-19T08:11:01;95626.50;;;12.42;58.72
22647;BME280;11490;42.726;23.268;2023-02-19T08:13:47;95628.00;;;12.66;58.13
22647;BME280;11490;42.726;23.268;2023-02-19T08:16:13;95638.03;;;12.88;56.80
22647;BME280;11490;42.726;23.268;2023-02-19T08:18:42;95641.47;;;13.00;57.33
22647;BME280;11490;42.726;23.268;2023-02-19T08:21:08;95636.75;;;13.07;57.68
22647;BME280;11490;42.726;23.268;2023-02-19T08:23:33;95624.19;;;13.24;56.92
22647;BME280;11490;42.726;23.268;2023-02-19T08:26:00;95628.03;;;13.45;56.48
22647;BME280;11490;42.726;23.268;2023-02-19T08:28:26;95637.91;;;13.78;55.65
22647;BME280;11490;42.726;23.268;2023-02-19T08:30:52;95620.78;;;14.01;54.28
22647;BME280;11490;42.726;23.268;2023-02-19T08:33:19;95637.47;;;14.73;52.83
22647;BME280;11490;42.726;23.268;2023-02-19T08:35:45;95616.47;;;15.29;51.09
22647;BME280;11490;42.726;23.268;2023-02-19T08:38:12;95623.53;;;16.19;48.42
22647;BME280;11490;42.726;23.268;2023-02-19T08:40:39;95623.84;;;17.25;44.68
22647;BME280;11490;42.726;23.268;2023-02-19T08:43:07;95650.00;;;17.76;44.96
22647;BME280;11490;42.726;23.268;2023-02-19T08:45:35;95643.75;;;18.11;44.19
22647;BME280;11490;42.726;23.268;2023-02-19T08:48:01;95642.56;;;18.42;41.84
22647;BME280;11490;42.726;23.268;2023-02-19T08:50:26;95636.03;;;18.58;41.43
22647;BME280;11490;42.726;23.268;2023-02-19T08:52:52;95612.84;;;18.42;41.03
22647;BME280;11490;42.726;23.268;2023-02-19T08:55:17;95630.22;;;18.85;40.46
22647;BME280;11490;42.726;23.268;2023-02-19T08:57:43;95616.78;;;19.14;41.15
22647;BME280;11490;42.726;23.268;2023-02-19T09:00:09;95621.94;;;19.44;40.50
22647;BME280;11490;42.726;23.268;2023-02-19T09:02:35;95577.00;;;19.14;39.97
22647;BME280;11490;42.726;23.268;2023-02-19T09:05:01;95592.97;;;19.16;40.55
22647;BME280;11490;42.726;23.268;2023-02-19T09:07:28;95599.94;;;19.27;40.59
22647;BME280;11490;42.726;23.268;2023-02-19T09:09:54;95592.69;;;19.17;41.34
22647;BME280;11490;42.726;23.268;2023-02-19T09:12:19;95604.19;;;19.33;40.60
22647;BME280;11490;42.726;23.268;2023-02-19T09:14:45;95576.19;;;19.19;40.04
22647;BME280;11490;42.726;23.268;2023-02-19T09:17:11;95594.09;;;19.10;40.73
22647;BME280;11490;42.726;23.268;2023-02-19T09:19:37;95601.06;;;19.16;41.21
22647;BME280;11490;42.726;23.268;2023-02-19T09:22:03;95576.69;;;19.21;39.50
22647;BME280;11490;42.726;23.268;2023-02-19T09:24:29;95591.06;;;19.16;39.53
22647;BME280;11490;42.726;23.268;2023-02-19T09:26:54;95599.63;;;18.95;40.69
22647;BME280;11490;42.726;23.268;2023-02-19T09:29:22;95589.50;;;18.71;41.21
22647;BME280;11490;42.726;23.268;2023-02-19T09:31:48;95582.63;;;18.35;42.91
22647;BME280;11490;42.726;23.268;2023-02-19T09:34:14;95584.84;;;18.77;42.29
22647;BME280;11490;42.726;23.268;2023-02-19T09:36:39;95578.09;;;18.79;41.63
22647;BME280;11490;42.726;23.268;2023-02-19T09:39:07;95570.13;;;18.49;41.90
22647;BME280;11490;42.726;23.268;2023-02-19T09:41:34;95564.31;;;18.27;42.52
22647;BME280;11490;42.726;23.268;2023-02-19T09:44:03;95584.19;;;18.46;43.39
22647;BME280;11490;42.726;23.268;2023-02-19T09:49:38;95585.38;;;18.20;43.17
22647;BME280;11490;42.726;23.268;2023-02-19T09:52:17;95572.47;;;18.12;43.30
22647;BME280;11490;42.726;23.268;2023-02-19T09:54:44;95566.66;;;18.38;44.99
22647;BME280;11490;42.726;23.268;2023-02-19T09:57:14;95569.28;;;18.54;42.77
22647;BME280;11490;42.726;23.268;2023-02-19T09:59:47;95563.59;;;18.60;43.11
22647;BME280;11490;42.726;23.268;2023-02-19T10:02:15;95554.19;;;18.48;42.46
22647;BME280;11490;42.726;23.268;2023-02-19T10:04:42;95550.66;;;18.52;42.20
22647;BME280;11490;42.726;23.268;2023-02-19T10:07:12;95544.63;;;18.70;41.01
22647;BME280;11490;42.726;23.268;2023-02-19T10:09:39;95535.06;;;18.83;42.82
22647;BME280;11490;42.726;23.268;2023-02-19T10:12:13;95537.41;;;18.51;41.10
22647;BME280;11490;42.726;23.268;2023-02-19T10:14:46;95534.13;;;18.64;41.58
22647;BME280;11490;42.726;23.268;2023-02-19T10:17:23;95535.78;;;18.60;40.59
22647;BME280;11490;42.726;23.268;2023-02-19T10:19:50;95521.16;;;18.66;42.47
22647;BME280;11490;42.726;23.268;2023-02-19T10:22:16;95525.72;;;18.70;41.50
22647;BME280;11490;42.726;23.268;2023-02-19T10:24:43;95506.25;;;18.68;42.04
22647;BME280;11490;42.726;23.268;2023-02-19T10:27:14;95491.50;;;18.90;41.27
22647;BME280;11490;42.726;23.268;2023-02-19T10:29:46;95503.56;;;18.73;40.49
22647;BME280;11490;42.726;23.268;2023-02-19T10:32:21;95496.06;;;18.60;40.76
22647;BME280;11490;42.726;23.268;2023-02-19T10:35:07;95493.94;;;18.57;41.52
22647;BME280;11490;42.726;23.268;2023-02-19T10:37:34;95485.00;;;18.52;41.91
22647;BME280;11490;42.726;23.268;2023-02-19T10:40:01;95466.63;;;18.54;41.65
22647;BME280;11490;42.726;23.268;2023-02-19T10:42:26;95472.28;;;18.62;41.56
22647;BME280;11490;42.726;23.268;2023-02-19T10:44:59;95460.06;;;18.26;40.96
22647;BME280;11490;42.726;23.268;2023-02-19T10:47:27;95455.59;;;18.06;40.17
22647;BME280;11490;42.726;23.268;2023-02-19T10:49:56;95435.78;;;18.21;42.67
22647;BME280;11490;42.726;23.268;2023-02-19T10:52:24;95432.50;;;18.29;42.31
22647;BME280;11490;42.726;23.268;2023-02-19T10:54:54;95428.00;;;18.19;41.79
22647;BME280;11490;42.726;23.268;2023-02-19T11:02:38;95400.19;;;18.14;40.52
22647;BME280;11490;42.726;23.268;2023-02-19T11:07:47;95402.97;;;18.03;41.87
22647;BME280;11490;42.726;23.268;2023-02-19T11:12:49;95410.53;;;18.01;42.45
22647;BME280;11490;42.726;23.268;2023-02-19T11:15:22;95398.66;;;18.02;41.99
22647;BME280;11490;42.726;23.268;2023-02-19T11:17:59;95383.06;;;17.94;42.10
22647;BME280;11490;42.726;23.268;2023-02-19T11:20:27;95377.09;;;17.97;41.32
22647;BME280;11490;42.726;23.268;2023-02-19T11:23:10;95363.56;;;18.02;41.91
22647;BME280;11490;42.726;23.268;2023-02-19T11:25:46;95382.69;;;18.06;41.15
22647;BME280;11490;42.726;23.268;2023-02-19T11:28:21;95382.44;;;18.07;41.87
22647;BME280;11490;42.726;23.268;2023-02-19T11:30:47;95367.03;;;18.08;42.19
22647;BME280;11490;42.726;23.268;2023-02-19T11:35:42;95354.19;;;17.95;41.14
22647;BME280;11490;42.726;23.268;2023-02-19T11:38:10;95324.81;;;17.88;40.99
22647;BME280;11490;42.726;23.268;2023-02-19T11:41:01;95348.47;;;17.96;39.67
22647;BME280;11490;42.726;23.268;2023-02-19T11:48:44;95335.59;;;17.88;41.26
22647;BME280;11490;42.726;23.268;2023-02-19T11:56:35;95324.59;;;17.75;40.68
22647;BME280;11490;42.726;23.268;2023-02-19T11:59:28;95322.19;;;17.73;40.30
22647;BME280;11490;42.726;23.268;2023-02-19T12:10:27;95308.63;;;17.88;38.69
22647;BME280;11490;42.726;23.268;2023-02-19T12:16:16;95286.44;;;17.91;39.13
22647;BME280;11490;42.726;23.268;2023-02-19T12:29:46;95268.75;;;17.80;39.13
22647;BME280;11490;42.726;23.268;2023-02-19T12:37:58;95247.63;;;17.87;39.11
22647;BME280;11490;42.726;23.268;2023-02-19T12:43:18;95231.72;;;17.86;38.52
22647;BME280;11490;42.726;23.268;2023-02-19T12:45:57;95215.09;;;17.74;38.49
22647;BME280;11490;42.726;23.268;2023-02-19T12:48:47;95212.09;;;17.75;38.63
22647;BME280;11490;42.726;23.268;2023-02-19T12:51:29;95206.22;;;17.68;39.46
22647;BME280;11490;42.726;23.268;2023-02-19T12:56:37;95209.38;;;17.80;38.25
22647;BME280;11490;42.726;23.268;2023-02-19T12:59:19;95180.13;;;17.63;37.86
22647;BME280;11490;42.726;23.268;2023-02-19T13:04:46;95193.00;;;17.72;39.38
22647;BME280;11490;42.726;23.268;2023-02-19T13:09:51;95155.66;;;17.50;39.33
22647;BME280;11490;42.726;23.268;2023-02-19T13:12:23;95174.44;;;17.60;38.81
22647;BME280;11490;42.726;23.268;2023-02-19T13:15:13;95181.63;;;17.75;38.80
22647;BME280;11490;42.726;23.268;2023-02-19T13:17:44;95157.16;;;17.61;38.98
22647;BME280;11490;42.726;23.268;2023-02-19T13:23:17;95164.59;;;17.79;38.75
22647;BME280;11490;42.726;23.268;2023-02-19T13:38:13;95095.09;;;17.71;37.77
22647;BME280;11490;42.726;23.268;2023-02-19T13:40:52;95087.44;;;17.78;38.40
22647;BME280;11490;42.726;23.268;2023-02-19T13:43:26;95111.00;;;17.96;37.88
22647;BME280;11490;42.726;23.268;2023-02-19T13:46:01;95093.22;;;17.95;38.16
22647;BME280;11490;42.726;23.268;2023-02-19T13:48:32;95124.03;;;18.13;37.90
22647;BME280;11490;42.726;23.268;2023-02-19T13:56:36;95116.38;;;17.96;38.28
22647;BME280;11490;42.726;23.268;2023-02-19T14:09:51;95082.75;;;17.65;38.65
22647;BME280;11490;42.726;23.268;2023-02-19T14:14:46;95076.03;;;17.57;38.67
22647;BME280;11490;42.726;23.268;2023-02-19T14:17:26;95104.66;;;17.82;38.55
22647;BME280;11490;42.726;23.268;2023-02-19T14:23:15;95095.56;;;17.73;38.74
22647;BME280;11490;42.726;23.268;2023-02-19T14:26:10;95099.06;;;17.79;38.40
22647;BME280;11490;42.726;23.268;2023-02-19T14:28:40;95087.44;;;17.78;38.54
22647;BME280;11490;42.726;23.268;2023-02-19T14:33:37;95090.09;;;17.83;39.16
22647;BME280;11490;42.726;23.268;2023-02-19T14:38:54;95085.22;;;17.85;40.14
22647;BME280;11490;42.726;23.268;2023-02-19T14:41:21;95075.06;;;17.77;41.18
22647;BME280;11490;42.726;23.268;2023-02-19T14:43:51;95070.88;;;17.61;42.13
22647;BME280;11490;42.726;23.268;2023-02-19T14:48:48;95076.81;;;17.58;41.98
22647;BME280;11490;42.726;23.268;2023-02-19T14:51:24;95042.97;;;17.47;42.36
22647;BME280;11490;42.726;23.268;2023-02-19T14:53:51;95052.94;;;17.46;42.35
22647;BME280;11490;42.726;23.268;2023-02-19T14:56:21;95052.59;;;17.53;42.94
22647;BME280;11490;42.726;23.268;2023-02-19T15:01:36;95059.06;;;17.57;42.47
22647;BME280;11490;42.726;23.268;2023-02-19T15:04:02;95057.72;;;17.54;43.64
22647;BME280;11490;42.726;23.268;2023-02-19T15:06:27;95057.00;;;17.44;43.26
22647;BME280;11490;42.726;23.268;2023-02-19T15:08:58;95058.66;;;17.40;43.34
22647;BME280;11490;42.726;23.268;2023-02-19T15:11:26;95056.72;;;17.16;43.51
22647;BME280;11490;42.726;23.268;2023-02-19T15:13:55;95061.50;;;17.24;43.85
22647;BME280;11490;42.726;23.268;2023-02-19T15:16:24;95042.78;;;17.04;44.50
22647;BME280;11490;42.726;23.268;2023-02-19T15:18:51;95070.75;;;17.13;44.33
22647;BME280;11490;42.726;23.268;2023-02-19T15:21:26;95041.88;;;16.85;44.69
22647;BME280;11490;42.726;23.268;2023-02-19T15:24:13;95064.94;;;16.96;45.15
22647;BME280;11490;42.726;23.268;2023-02-19T15:26:41;95019.91;;;16.68;44.89